Historique des mesures à Cassis (13260), France
Quotidien Résumé Mai 2, 2020 Unités:  Métrique    US   Métrique/US
Quotidien Hebdomadaire Mensuel Annuel
  Maximum: Minimum: Moyenne:
Température: 27.8 °C 22.5 °C 25.6 °C
Point de rosée: 20.1 °C 17.3 °C 18.6 °C
Humidité: 76% 55% 66%
Vitesse du vent: 21.6km/h 0km/h 5.5km/h
Rafales: 35.6km/h - -
Vent- - WSW
Pression: 1009.9 hPa 1007.9 hPa -
Précipitations: 0.0 mm    
Historical Graphs
 
 
Mesures pour : Mai 2, 2020
Heure Temperature Point de rosée Pression Vent Vitesse du vent Rafales Humidité Pluie (par heure)
00:11 24.1 °C 17.3 °C 1008.8 hPa Calm   11.2 km/h 66% 0.0 mm
01:11 23.8 °C 17.5 °C 1008.5 hPa Calm   4.3 km/h 68% 0.0 mm
02:11 23.5 °C 18.4 °C 1008.5 hPa Calm   3.2 km/h 73% 0.0 mm
03:11 23.5 °C 18.4 °C 1008.4 hPa NNE 2.2 km/h 6.8 km/h 73% 0.0 mm
04:11 23.1 °C 18.2 °C 1008.1 hPa Calm   3.6 km/h 74% 0.0 mm
05:11 22.7 °C 18.3 °C 1008.1 hPa Calm   5 km/h 76% 0.0 mm
06:11 22.5 °C 18.1 °C 1008.2 hPa ENE 1.8 km/h 6.8 km/h 76% 0.0 mm
07:11 22.7 °C 18.3 °C 1008.4 hPa Calm   4 km/h 76% 0.0 mm
08:11 27.1 °C 19.4 °C 1008.5 hPa Calm   6.5 km/h 63% 0.0 mm
09:11 26.1 °C 19 °C 1008.7 hPa Calm   6.1 km/h 65% 0.0 mm
10:11 26.1 °C 19 °C 1008.5 hPa Calm   2.9 km/h 65% 0.0 mm
11:11 26.3 °C 18.9 °C 1008.3 hPa NNW 3.2 km/h 7.2 km/h 64% 0.0 mm
12:11 25.9 °C 18.8 °C 1008.9 hPa Calm   2.2 km/h 65% 0.0 mm
13:11 26.6 °C 18.7 °C 1009.1 hPa WNW 18.7 km/h 25.6 km/h 62% 0.0 mm
14:11 26.9 °C 18.8 °C 1009.9 hPa West 16.6 km/h 28.8 km/h 61% 0.0 mm
15:11 27.3 °C 19.9 °C 1008.8 hPa WNW 12.6 km/h 28.8 km/h 64% 0.0 mm
16:11 27.8 °C 20.1 °C 1008.6 hPa SE 9 km/h 15.5 km/h 63% 0.0 mm
17:11 27.5 °C 19.1 °C 1007.9 hPa WNW 20.2 km/h 35.6 km/h 60% 0.0 mm
18:11 27.6 °C 17.7 °C 1008.2 hPa NW 21.6 km/h 31 km/h 55% 0.0 mm
19:11 27.6 °C 18.6 °C 1008.3 hPa WNW 9.4 km/h 32.8 km/h 58% 0.0 mm
20:11 27.5 °C 18.8 °C 1008.3 hPa NW 5 km/h 27.4 km/h 59% 0.0 mm
21:11 26.4 °C 18.5 °C 1008.2 hPa WNW 5.8 km/h 13 km/h 62% 0.0 mm
22:11 26.2 °C 18.8 °C 1008.4 hPa West 5.8 km/h 21.2 km/h 64% 0.0 mm
23:11 26.2 °C 18.6 °C 1008.8 hPa Calm   3.2 km/h 63% 0.0 mm
Observations météo à CASSIS
WU-History script by Weather Underground - 2 mb